sensor_id;sensor_type;location;lat;lon;timestamp;P1;durP1;ratioP1;P2;durP2;ratioP2
66127;SDS011;52925;52.436;-1.952;2023-08-08T00:01:12;1.87;;;0.70;;
66127;SDS011;52925;52.436;-1.952;2023-08-08T00:02:32;2.17;;;0.90;;
66127;SDS011;52925;52.436;-1.952;2023-08-08T00:03:53;1.20;;;0.63;;
66127;SDS011;52925;52.436;-1.952;2023-08-08T00:05:13;0.97;;;0.80;;
66127;SDS011;52925;52.436;-1.952;2023-08-08T00:06:35;1.00;;;0.67;;
66127;SDS011;52925;52.436;-1.952;2023-08-08T00:07:55;1.10;;;0.80;;
66127;SDS011;52925;52.436;-1.952;2023-08-08T00:09:16;2.37;;;0.70;;
66127;SDS011;52925;52.436;-1.952;2023-08-08T00:10:38;1.50;;;0.80;;
66127;SDS011;52925;52.436;-1.952;2023-08-08T00:11:59;1.57;;;0.90;;
66127;SDS011;52925;52.436;-1.952;2023-08-08T00:13:18;2.03;;;0.70;;
66127;SDS011;52925;52.436;-1.952;2023-08-08T00:14:39;1.10;;;0.90;;
66127;SDS011;52925;52.436;-1.952;2023-08-08T00:15:59;1.00;;;0.80;;
66127;SDS011;52925;52.436;-1.952;2023-08-08T00:17:21;1.87;;;0.70;;
66127;SDS011;52925;52.436;-1.952;2023-08-08T00:18:41;1.63;;;0.90;;
66127;SDS011;52925;52.436;-1.952;2023-08-08T00:20:02;1.33;;;0.80;;
66127;SDS011;52925;52.436;-1.952;2023-08-08T00:21:23;1.50;;;0.80;;
66127;SDS011;52925;52.436;-1.952;2023-08-08T00:22:44;0.70;;;0.70;;
66127;SDS011;52925;52.436;-1.952;2023-08-08T00:24:04;1.40;;;0.97;;
66127;SDS011;52925;52.436;-1.952;2023-08-08T00:25:25;2.20;;;1.00;;
66127;SDS011;52925;52.436;-1.952;2023-08-08T00:26:47;1.40;;;0.70;;
66127;SDS011;52925;52.436;-1.952;2023-08-08T00:28:08;1.73;;;0.70;;
66127;SDS011;52925;52.436;-1.952;2023-08-08T00:29:28;0.80;;;0.80;;
66127;SDS011;52925;52.436;-1.952;2023-08-08T00:30:49;1.23;;;0.80;;
66127;SDS011;52925;52.436;-1.952;2023-08-08T00:32:08;1.40;;;0.80;;
66127;SDS011;52925;52.436;-1.952;2023-08-08T00:33:29;2.40;;;0.73;;
66127;SDS011;52925;52.436;-1.952;2023-08-08T00:34:49;2.13;;;0.63;;
66127;SDS011;52925;52.436;-1.952;2023-08-08T00:36:10;1.43;;;0.70;;
66127;SDS011;52925;52.436;-1.952;2023-08-08T00:37:31;1.63;;;0.70;;
66127;SDS011;52925;52.436;-1.952;2023-08-08T00:38:51;2.17;;;1.00;;
66127;SDS011;52925;52.436;-1.952;2023-08-08T00:40:13;1.07;;;0.67;;
66127;SDS011;52925;52.436;-1.952;2023-08-08T00:41:33;1.40;;;0.70;;
66127;SDS011;52925;52.436;-1.952;2023-08-08T00:42:55;1.93;;;0.77;;
66127;SDS011;52925;52.436;-1.952;2023-08-08T00:44:14;0.90;;;0.70;;
66127;SDS011;52925;52.436;-1.952;2023-08-08T00:45:36;3.50;;;0.70;;
66127;SDS011;52925;52.436;-1.952;2023-08-08T00:46:56;2.17;;;0.57;;
66127;SDS011;52925;52.436;-1.952;2023-08-08T00:48:17;1.97;;;0.60;;
66127;SDS011;52925;52.436;-1.952;2023-08-08T00:49:38;2.00;;;0.80;;
66127;SDS011;52925;52.436;-1.952;2023-08-08T00:51:00;1.20;;;0.87;;
66127;SDS011;52925;52.436;-1.952;2023-08-08T00:52:20;1.17;;;0.70;;
66127;SDS011;52925;52.436;-1.952;2023-08-08T00:53:41;1.73;;;0.70;;
66127;SDS011;52925;52.436;-1.952;2023-08-08T00:55:03;0.97;;;0.70;;
66127;SDS011;52925;52.436;-1.952;2023-08-08T00:56:24;2.50;;;0.87;;
66127;SDS011;52925;52.436;-1.952;2023-08-08T00:57:45;3.07;;;0.80;;
66127;SDS011;52925;52.436;-1.952;2023-08-08T00:59:08;0.77;;;0.60;;
66127;SDS011;52925;52.436;-1.952;2023-08-08T01:00:30;1.43;;;0.60;;
66127;SDS011;52925;52.436;-1.952;2023-08-08T01:01:52;1.37;;;0.73;;
66127;SDS011;52925;52.436;-1.952;2023-08-08T01:03:11;1.33;;;0.70;;
66127;SDS011;52925;52.436;-1.952;2023-08-08T01:04:32;0.70;;;0.60;;
66127;SDS011;52925;52.436;-1.952;2023-08-08T01:05:55;0.80;;;0.70;;
66127;SDS011;52925;52.436;-1.952;2023-08-08T01:07:23;0.80;;;0.53;;
66127;SDS011;52925;52.436;-1.952;2023-08-08T01:08:51;1.90;;;0.80;;
66127;SDS011;52925;52.436;-1.952;2023-08-08T01:10:16;2.07;;;0.60;;
66127;SDS011;52925;52.436;-1.952;2023-08-08T01:11:39;2.17;;;0.60;;
66127;SDS011;52925;52.436;-1.952;2023-08-08T01:13:02;1.20;;;0.70;;
66127;SDS011;52925;52.436;-1.952;2023-08-08T01:14:25;1.10;;;0.77;;
66127;SDS011;52925;52.436;-1.952;2023-08-08T01:15:48;2.20;;;0.70;;
66127;SDS011;52925;52.436;-1.952;2023-08-08T01:17:09;1.30;;;0.60;;
66127;SDS011;52925;52.436;-1.952;2023-08-08T01:18:32;3.30;;;0.67;;
66127;SDS011;52925;52.436;-1.952;2023-08-08T01:19:53;2.43;;;0.97;;
66127;SDS011;52925;52.436;-1.952;2023-08-08T01:21:12;1.27;;;0.70;;
66127;SDS011;52925;52.436;-1.952;2023-08-08T01:22:36;2.63;;;0.57;;
66127;SDS011;52925;52.436;-1.952;2023-08-08T01:24:01;2.43;;;0.87;;
66127;SDS011;52925;52.436;-1.952;2023-08-08T01:25:38;1.43;;;0.70;;
66127;SDS011;52925;52.436;-1.952;2023-08-08T01:26:59;1.70;;;0.70;;
66127;SDS011;52925;52.436;-1.952;2023-08-08T01:28:20;0.90;;;0.50;;
66127;SDS011;52925;52.436;-1.952;2023-08-08T01:29:41;1.57;;;0.70;;
66127;SDS011;52925;52.436;-1.952;2023-08-08T01:31:02;2.57;;;0.67;;
66127;SDS011;52925;52.436;-1.952;2023-08-08T01:32:21;1.13;;;0.67;;
66127;SDS011;52925;52.436;-1.952;2023-08-08T01:33:42;1.47;;;0.50;;
66127;SDS011;52925;52.436;-1.952;2023-08-08T01:35:02;0.97;;;0.53;;
66127;SDS011;52925;52.436;-1.952;2023-08-08T01:36:26;1.33;;;0.70;;
66127;SDS011;52925;52.436;-1.952;2023-08-08T01:37:49;1.63;;;0.60;;
66127;SDS011;52925;52.436;-1.952;2023-08-08T01:39:13;0.70;;;0.50;;
66127;SDS011;52925;52.436;-1.952;2023-08-08T01:40:37;1.30;;;0.60;;
66127;SDS011;52925;52.436;-1.952;2023-08-08T01:42:00;2.00;;;0.77;;
66127;SDS011;52925;52.436;-1.952;2023-08-08T01:43:20;1.63;;;0.80;;
66127;SDS011;52925;52.436;-1.952;2023-08-08T01:44:42;0.77;;;0.60;;
66127;SDS011;52925;52.436;-1.952;2023-08-08T01:46:02;2.30;;;0.73;;
66127;SDS011;52925;52.436;-1.952;2023-08-08T01:47:24;1.60;;;0.90;;
66127;SDS011;52925;52.436;-1.952;2023-08-08T01:48:44;1.00;;;0.60;;
66127;SDS011;52925;52.436;-1.952;2023-08-08T01:50:06;2.50;;;0.80;;
66127;SDS011;52925;52.436;-1.952;2023-08-08T01:51:28;1.00;;;0.60;;
66127;SDS011;52925;52.436;-1.952;2023-08-08T01:52:49;1.90;;;0.70;;
66127;SDS011;52925;52.436;-1.952;2023-08-08T01:54:09;2.13;;;0.70;;
66127;SDS011;52925;52.436;-1.952;2023-08-08T01:55:30;1.10;;;0.77;;
66127;SDS011;52925;52.436;-1.952;2023-08-08T01:56:51;2.27;;;0.80;;
66127;SDS011;52925;52.436;-1.952;2023-08-08T01:58:12;1.40;;;0.60;;
66127;SDS011;52925;52.436;-1.952;2023-08-08T01:59:32;2.30;;;0.70;;
66127;SDS011;52925;52.436;-1.952;2023-08-08T02:00:53;1.87;;;0.70;;
66127;SDS011;52925;52.436;-1.952;2023-08-08T02:02:13;2.53;;;0.80;;
66127;SDS011;52925;52.436;-1.952;2023-08-08T02:03:35;3.43;;;0.70;;
66127;SDS011;52925;52.436;-1.952;2023-08-08T02:04:57;1.93;;;0.80;;
66127;SDS011;52925;52.436;-1.952;2023-08-08T02:06:18;1.70;;;0.53;;
66127;SDS011;52925;52.436;-1.952;2023-08-08T02:07:38;2.50;;;0.80;;
66127;SDS011;52925;52.436;-1.952;2023-08-08T02:08:59;1.20;;;0.80;;
66127;SDS011;52925;52.436;-1.952;2023-08-08T02:10:19;1.17;;;0.80;;
66127;SDS011;52925;52.436;-1.952;2023-08-08T02:11:40;1.13;;;0.67;;
66127;SDS011;52925;52.436;-1.952;2023-08-08T02:13:01;1.90;;;0.70;;
66127;SDS011;52925;52.436;-1.952;2023-08-08T02:14:22;1.37;;;0.73;;
66127;SDS011;52925;52.436;-1.952;2023-08-08T02:15:42;1.43;;;0.80;;
66127;SDS011;52925;52.436;-1.952;2023-08-08T02:17:03;2.73;;;0.80;;
66127;SDS011;52925;52.436;-1.952;2023-08-08T02:18:24;0.93;;;0.70;;
66127;SDS011;52925;52.436;-1.952;2023-08-08T02:19:45;1.63;;;0.70;;
66127;SDS011;52925;52.436;-1.952;2023-08-08T02:21:04;2.07;;;0.80;;
66127;SDS011;52925;52.436;-1.952;2023-08-08T02:22:25;1.97;;;0.97;;
66127;SDS011;52925;52.436;-1.952;2023-08-08T02:23:45;1.83;;;0.63;;
66127;SDS011;52925;52.436;-1.952;2023-08-08T02:25:06;1.57;;;0.60;;
66127;SDS011;52925;52.436;-1.952;2023-08-08T02:26:27;1.93;;;0.77;;
66127;SDS011;52925;52.436;-1.952;2023-08-08T02:27:48;0.60;;;0.47;;
66127;SDS011;52925;52.436;-1.952;2023-08-08T02:29:09;2.57;;;0.60;;
66127;SDS011;52925;52.436;-1.952;2023-08-08T02:30:30;1.23;;;0.80;;
66127;SDS011;52925;52.436;-1.952;2023-08-08T02:31:49;1.93;;;0.60;;
66127;SDS011;52925;52.436;-1.952;2023-08-08T02:33:11;1.97;;;0.60;;
66127;SDS011;52925;52.436;-1.952;2023-08-08T02:34:30;1.50;;;0.77;;
66127;SDS011;52925;52.436;-1.952;2023-08-08T02:35:51;2.47;;;0.63;;
66127;SDS011;52925;52.436;-1.952;2023-08-08T02:37:11;0.80;;;0.70;;
66127;SDS011;52925;52.436;-1.952;2023-08-08T02:38:33;1.43;;;0.70;;
66127;SDS011;52925;52.436;-1.952;2023-08-08T02:39:53;1.23;;;0.70;;
66127;SDS011;52925;52.436;-1.952;2023-08-08T02:41:15;1.07;;;0.80;;
66127;SDS011;52925;52.436;-1.952;2023-08-08T02:42:35;2.53;;;0.90;;
66127;SDS011;52925;52.436;-1.952;2023-08-08T02:43:56;3.00;;;0.93;;
66127;SDS011;52925;52.436;-1.952;2023-08-08T02:45:17;1.50;;;0.70;;
66127;SDS011;52925;52.436;-1.952;2023-08-08T02:46:38;1.83;;;0.90;;
66127;SDS011;52925;52.436;-1.952;2023-08-08T02:47:59;2.77;;;0.90;;
66127;SDS011;52925;52.436;-1.952;2023-08-08T02:49:20;3.30;;;1.10;;
66127;SDS011;52925;52.436;-1.952;2023-08-08T02:50:40;2.07;;;0.90;;
66127;SDS011;52925;52.436;-1.952;2023-08-08T02:52:02;2.63;;;1.20;;
66127;SDS011;52925;52.436;-1.952;2023-08-08T02:53:25;2.23;;;0.93;;
66127;SDS011;52925;52.436;-1.952;2023-08-08T02:54:46;2.27;;;1.13;;
66127;SDS011;52925;52.436;-1.952;2023-08-08T02:56:07;2.40;;;1.13;;
66127;SDS011;52925;52.436;-1.952;2023-08-08T02:57:32;3.53;;;1.80;;
66127;SDS011;52925;52.436;-1.952;2023-08-08T02:58:52;2.37;;;1.43;;
66127;SDS011;52925;52.436;-1.952;2023-08-08T03:00:13;3.83;;;1.40;;
66127;SDS011;52925;52.436;-1.952;2023-08-08T03:01:37;6.50;;;1.87;;
66127;SDS011;52925;52.436;-1.952;2023-08-08T03:03:05;3.60;;;2.07;;
66127;SDS011;52925;52.436;-1.952;2023-08-08T03:04:25;3.73;;;1.87;;
66127;SDS011;52925;52.436;-1.952;2023-08-08T03:05:46;5.47;;;2.03;;
66127;SDS011;52925;52.436;-1.952;2023-08-08T03:07:09;4.70;;;2.23;;
66127;SDS011;52925;52.436;-1.952;2023-08-08T03:08:30;7.50;;;2.47;;
66127;SDS011;52925;52.436;-1.952;2023-08-08T03:09:51;5.30;;;2.37;;
66127;SDS011;52925;52.436;-1.952;2023-08-08T03:11:13;5.33;;;2.53;;
66127;SDS011;52925;52.436;-1.952;2023-08-08T03:12:34;4.70;;;2.33;;
66127;SDS011;52925;52.436;-1.952;2023-08-08T03:13:57;3.90;;;1.90;;
66127;SDS011;52925;52.436;-1.952;2023-08-08T03:15:18;5.77;;;1.87;;
66127;SDS011;52925;52.436;-1.952;2023-08-08T03:16:40;4.70;;;2.10;;
66127;SDS011;52925;52.436;-1.952;2023-08-08T03:18:01;4.93;;;2.03;;
66127;SDS011;52925;52.436;-1.952;2023-08-08T03:19:22;5.27;;;2.30;;
66127;SDS011;52925;52.436;-1.952;2023-08-08T03:20:42;6.63;;;2.17;;
66127;SDS011;52925;52.436;-1.952;2023-08-08T03:22:04;5.03;;;2.13;;
66127;SDS011;52925;52.436;-1.952;2023-08-08T03:23:26;4.13;;;1.93;;
66127;SDS011;52925;52.436;-1.952;2023-08-08T03:24:47;3.80;;;1.60;;
66127;SDS011;52925;52.436;-1.952;2023-08-08T03:26:07;3.63;;;1.60;;
66127;SDS011;52925;52.436;-1.952;2023-08-08T03:27:29;4.43;;;1.67;;
66127;SDS011;52925;52.436;-1.952;2023-08-08T03:28:49;3.77;;;1.80;;
66127;SDS011;52925;52.436;-1.952;2023-08-08T03:30:16;2.53;;;1.43;;
66127;SDS011;52925;52.436;-1.952;2023-08-08T03:31:36;3.27;;;1.97;;
66127;SDS011;52925;52.436;-1.952;2023-08-08T03:32:59;4.33;;;1.60;;
66127;SDS011;52925;52.436;-1.952;2023-08-08T03:34:19;3.57;;;1.70;;
66127;SDS011;52925;52.436;-1.952;2023-08-08T03:35:40;3.53;;;1.50;;
66127;SDS011;52925;52.436;-1.952;2023-08-08T03:37:00;2.87;;;1.20;;
66127;SDS011;52925;52.436;-1.952;2023-08-08T03:38:21;3.47;;;1.27;;
66127;SDS011;52925;52.436;-1.952;2023-08-08T03:39:40;3.20;;;1.20;;
66127;SDS011;52925;52.436;-1.952;2023-08-08T03:41:03;4.47;;;1.50;;
66127;SDS011;52925;52.436;-1.952;2023-08-08T03:42:22;5.17;;;1.53;;
66127;SDS011;52925;52.436;-1.952;2023-08-08T03:43:44;2.03;;;1.20;;
66127;SDS011;52925;52.436;-1.952;2023-08-08T03:45:04;3.30;;;1.40;;
66127;SDS011;52925;52.436;-1.952;2023-08-08T03:46:25;2.40;;;1.23;;
66127;SDS011;52925;52.436;-1.952;2023-08-08T03:47:45;3.43;;;1.10;;
66127;SDS011;52925;52.436;-1.952;2023-08-08T03:49:08;2.97;;;1.20;;
66127;SDS011;52925;52.436;-1.952;2023-08-08T03:50:28;1.80;;;1.10;;
66127;SDS011;52925;52.436;-1.952;2023-08-08T03:51:49;3.10;;;1.30;;
66127;SDS011;52925;52.436;-1.952;2023-08-08T03:53:09;4.50;;;1.53;;
66127;SDS011;52925;52.436;-1.952;2023-08-08T03:54:30;4.43;;;1.10;;
66127;SDS011;52925;52.436;-1.952;2023-08-08T03:55:50;1.57;;;1.00;;
66127;SDS011;52925;52.436;-1.952;2023-08-08T03:57:11;1.20;;;1.00;;
66127;SDS011;52925;52.436;-1.952;2023-08-08T03:58:30;2.07;;;1.20;;
66127;SDS011;52925;52.436;-1.952;2023-08-08T03:59:52;1.97;;;1.23;;
66127;SDS011;52925;52.436;-1.952;2023-08-08T04:01:12;2.83;;;1.30;;
66127;SDS011;52925;52.436;-1.952;2023-08-08T04:02:33;1.97;;;1.20;;
66127;SDS011;52925;52.436;-1.952;2023-08-08T04:03:54;3.37;;;1.20;;
66127;SDS011;52925;52.436;-1.952;2023-08-08T04:05:16;2.27;;;1.10;;
66127;SDS011;52925;52.436;-1.952;2023-08-08T04:06:36;1.23;;;1.00;;
66127;SDS011;52925;52.436;-1.952;2023-08-08T04:07:57;1.70;;;1.10;;
66127;SDS011;52925;52.436;-1.952;2023-08-08T04:09:17;2.57;;;1.23;;
66127;SDS011;52925;52.436;-1.952;2023-08-08T04:10:38;1.97;;;1.03;;
66127;SDS011;52925;52.436;-1.952;2023-08-08T04:11:58;3.03;;;1.03;;
66127;SDS011;52925;52.436;-1.952;2023-08-08T04:13:19;2.77;;;1.20;;
66127;SDS011;52925;52.436;-1.952;2023-08-08T04:14:39;3.07;;;1.20;;
66127;SDS011;52925;52.436;-1.952;2023-08-08T04:16:00;2.23;;;1.00;;
66127;SDS011;52925;52.436;-1.952;2023-08-08T04:17:20;2.33;;;1.00;;
66127;SDS011;52925;52.436;-1.952;2023-08-08T04:18:40;2.47;;;1.00;;
66127;SDS011;52925;52.436;-1.952;2023-08-08T04:20:00;2.93;;;1.10;;
66127;SDS011;52925;52.436;-1.952;2023-08-08T04:21:23;3.27;;;1.03;;
66127;SDS011;52925;52.436;-1.952;2023-08-08T04:22:43;1.97;;;0.90;;
66127;SDS011;52925;52.436;-1.952;2023-08-08T04:24:05;2.77;;;1.10;;
66127;SDS011;52925;52.436;-1.952;2023-08-08T04:25:26;2.97;;;1.13;;
66127;SDS011;52925;52.436;-1.952;2023-08-08T04:26:47;1.80;;;1.10;;
66127;SDS011;52925;52.436;-1.952;2023-08-08T04:28:07;1.70;;;1.07;;
66127;SDS011;52925;52.436;-1.952;2023-08-08T04:29:28;2.20;;;1.00;;
66127;SDS011;52925;52.436;-1.952;2023-08-08T04:30:48;1.87;;;1.20;;
66127;SDS011;52925;52.436;-1.952;2023-08-08T04:32:09;2.20;;;0.87;;
66127;SDS011;52925;52.436;-1.952;2023-08-08T04:33:29;3.17;;;0.97;;
66127;SDS011;52925;52.436;-1.952;2023-08-08T04:34:50;1.77;;;1.20;;
66127;SDS011;52925;52.436;-1.952;2023-08-08T04:36:10;3.90;;;1.00;;
66127;SDS011;52925;52.436;-1.952;2023-08-08T04:37:32;1.83;;;0.93;;
66127;SDS011;52925;52.436;-1.952;2023-08-08T04:38:52;2.03;;;0.90;;
66127;SDS011;52925;52.436;-1.952;2023-08-08T04:40:13;2.03;;;1.00;;
66127;SDS011;52925;52.436;-1.952;2023-08-08T04:41:33;1.63;;;0.97;;
66127;SDS011;52925;52.436;-1.952;2023-08-08T04:42:53;1.57;;;1.00;;
66127;SDS011;52925;52.436;-1.952;2023-08-08T04:44:14;1.63;;;1.03;;
66127;SDS011;52925;52.436;-1.952;2023-08-08T04:45:34;3.33;;;1.10;;
66127;SDS011;52925;52.436;-1.952;2023-08-08T04:46:55;3.07;;;1.10;;
66127;SDS011;52925;52.436;-1.952;2023-08-08T04:48:15;2.20;;;1.00;;
66127;SDS011;52925;52.436;-1.952;2023-08-08T04:49:37;1.57;;;0.80;;
66127;SDS011;52925;52.436;-1.952;2023-08-08T04:50:57;1.33;;;1.00;;
66127;SDS011;52925;52.436;-1.952;2023-08-08T04:52:18;1.70;;;1.10;;
66127;SDS011;52925;52.436;-1.952;2023-08-08T04:53:39;1.00;;;0.90;;
66127;SDS011;52925;52.436;-1.952;2023-08-08T04:55:00;3.17;;;1.17;;
66127;SDS011;52925;52.436;-1.952;2023-08-08T04:56:20;3.20;;;1.10;;
66127;SDS011;52925;52.436;-1.952;2023-08-08T04:57:41;1.40;;;0.90;;
66127;SDS011;52925;52.436;-1.952;2023-08-08T04:59:01;2.73;;;1.00;;
66127;SDS011;52925;52.436;-1.952;2023-08-08T05:00:22;2.30;;;1.17;;
66127;SDS011;52925;52.436;-1.952;2023-08-08T05:01:42;1.73;;;0.93;;
66127;SDS011;52925;52.436;-1.952;2023-08-08T05:03:02;1.53;;;1.00;;
66127;SDS011;52925;52.436;-1.952;2023-08-08T05:04:22;2.20;;;1.00;;
66127;SDS011;52925;52.436;-1.952;2023-08-08T05:05:43;1.70;;;1.00;;
66127;SDS011;52925;52.436;-1.952;2023-08-08T05:07:04;0.80;;;0.80;;
66127;SDS011;52925;52.436;-1.952;2023-08-08T05:08:25;2.13;;;1.00;;
66127;SDS011;52925;52.436;-1.952;2023-08-08T05:09:46;2.63;;;1.00;;
66127;SDS011;52925;52.436;-1.952;2023-08-08T05:11:08;2.50;;;1.10;;
66127;SDS011;52925;52.436;-1.952;2023-08-08T05:12:28;1.60;;;0.90;;
66127;SDS011;52925;52.436;-1.952;2023-08-08T05:13:48;2.83;;;1.00;;
66127;SDS011;52925;52.436;-1.952;2023-08-08T05:15:09;2.97;;;1.03;;
66127;SDS011;52925;52.436;-1.952;2023-08-08T05:16:32;1.33;;;1.03;;
66127;SDS011;52925;52.436;-1.952;2023-08-08T05:17:52;2.80;;;1.00;;
66127;SDS011;52925;52.436;-1.952;2023-08-08T05:19:14;2.03;;;1.00;;
66127;SDS011;52925;52.436;-1.952;2023-08-08T05:20:34;2.83;;;1.20;;
66127;SDS011;52925;52.436;-1.952;2023-08-08T05:21:55;2.70;;;0.83;;
66127;SDS011;52925;52.436;-1.952;2023-08-08T05:23:15;1.93;;;0.80;;
66127;SDS011;52925;52.436;-1.952;2023-08-08T05:24:35;2.13;;;0.90;;
66127;SDS011;52925;52.436;-1.952;2023-08-08T05:25:57;1.57;;;0.90;;
66127;SDS011;52925;52.436;-1.952;2023-08-08T05:27:18;3.40;;;1.10;;
66127;SDS011;52925;52.436;-1.952;2023-08-08T05:28:38;2.40;;;1.00;;
66127;SDS011;52925;52.436;-1.952;2023-08-08T05:29:59;1.80;;;0.90;;
66127;SDS011;52925;52.436;-1.952;2023-08-08T05:31:19;2.03;;;1.03;;
66127;SDS011;52925;52.436;-1.952;2023-08-08T05:32:40;2.03;;;0.87;;
66127;SDS011;52925;52.436;-1.952;2023-08-08T05:34:00;2.07;;;0.90;;
66127;SDS011;52925;52.436;-1.952;2023-08-08T05:35:21;1.27;;;0.83;;
66127;SDS011;52925;52.436;-1.952;2023-08-08T05:36:41;1.20;;;0.90;;
66127;SDS011;52925;52.436;-1.952;2023-08-08T05:38:02;2.10;;;0.90;;
66127;SDS011;52925;52.436;-1.952;2023-08-08T05:39:22;1.70;;;0.80;;
66127;SDS011;52925;52.436;-1.952;2023-08-08T05:40:43;2.87;;;1.00;;
66127;SDS011;52925;52.436;-1.952;2023-08-08T05:42:05;3.13;;;1.10;;
66127;SDS011;52925;52.436;-1.952;2023-08-08T05:43:26;3.00;;;1.03;;
66127;SDS011;52925;52.436;-1.952;2023-08-08T05:44:46;1.87;;;0.90;;
66127;SDS011;52925;52.436;-1.952;2023-08-08T05:46:07;2.53;;;1.13;;
66127;SDS011;52925;52.436;-1.952;2023-08-08T05:47:27;3.13;;;0.83;;
66127;SDS011;52925;52.436;-1.952;2023-08-08T05:48:48;2.53;;;1.00;;
66127;SDS011;52925;52.436;-1.952;2023-08-08T05:50:08;5.40;;;1.13;;
66127;SDS011;52925;52.436;-1.952;2023-08-08T05:51:29;2.87;;;1.07;;
66127;SDS011;52925;52.436;-1.952;2023-08-08T05:52:49;1.73;;;1.00;;
66127;SDS011;52925;52.436;-1.952;2023-08-08T05:54:10;1.40;;;0.80;;
66127;SDS011;52925;52.436;-1.952;2023-08-08T05:55:30;2.30;;;0.90;;
66127;SDS011;52925;52.436;-1.952;2023-08-08T05:56:51;2.80;;;0.97;;
66127;SDS011;52925;52.436;-1.952;2023-08-08T05:58:12;2.63;;;1.00;;
66127;SDS011;52925;52.436;-1.952;2023-08-08T05:59:34;1.83;;;0.97;;
66127;SDS011;52925;52.436;-1.952;2023-08-08T06:00:54;3.77;;;1.17;;
66127;SDS011;52925;52.436;-1.952;2023-08-08T06:02:15;2.57;;;1.10;;
66127;SDS011;52925;52.436;-1.952;2023-08-08T06:03:35;3.67;;;1.00;;
66127;SDS011;52925;52.436;-1.952;2023-08-08T06:04:56;1.23;;;1.00;;
66127;SDS011;52925;52.436;-1.952;2023-08-08T06:06:16;2.73;;;0.90;;
66127;SDS011;52925;52.436;-1.952;2023-08-08T06:07:37;2.20;;;0.97;;
66127;SDS011;52925;52.436;-1.952;2023-08-08T06:08:57;1.90;;;1.00;;
66127;SDS011;52925;52.436;-1.952;2023-08-08T06:10:18;3.07;;;0.80;;
66127;SDS011;52925;52.436;-1.952;2023-08-08T06:11:38;1.50;;;0.80;;
66127;SDS011;52925;52.436;-1.952;2023-08-08T06:12:59;3.00;;;0.87;;
66127;SDS011;52925;52.436;-1.952;2023-08-08T06:14:20;1.67;;;0.80;;
66127;SDS011;52925;52.436;-1.952;2023-08-08T06:15:41;2.33;;;0.80;;
66127;SDS011;52925;52.436;-1.952;2023-08-08T06:17:01;2.67;;;1.00;;
66127;SDS011;52925;52.436;-1.952;2023-08-08T06:18:23;3.93;;;0.83;;
66127;SDS011;52925;52.436;-1.952;2023-08-08T06:19:42;2.17;;;1.00;;
66127;SDS011;52925;52.436;-1.952;2023-08-08T06:21:04;3.13;;;1.00;;
66127;SDS011;52925;52.436;-1.952;2023-08-08T06:22:24;4.70;;;1.17;;
66127;SDS011;52925;52.436;-1.952;2023-08-08T06:23:44;5.97;;;1.03;;
66127;SDS011;52925;52.436;-1.952;2023-08-08T06:25:06;3.20;;;1.10;;
66127;SDS011;52925;52.436;-1.952;2023-08-08T06:26:27;3.87;;;1.13;;
66127;SDS011;52925;52.436;-1.952;2023-08-08T06:27:47;4.53;;;1.60;;
66127;SDS011;52925;52.436;-1.952;2023-08-08T06:29:08;5.93;;;1.20;;
66127;SDS011;52925;52.436;-1.952;2023-08-08T06:30:29;3.53;;;1.00;;
66127;SDS011;52925;52.436;-1.952;2023-08-08T06:31:51;2.87;;;0.90;;
66127;SDS011;52925;52.436;-1.952;2023-08-08T06:33:11;5.37;;;1.40;;
66127;SDS011;52925;52.436;-1.952;2023-08-08T06:34:32;2.37;;;1.27;;
66127;SDS011;52925;52.436;-1.952;2023-08-08T06:35:52;3.23;;;1.10;;
66127;SDS011;52925;52.436;-1.952;2023-08-08T06:37:13;1.93;;;0.90;;
66127;SDS011;52925;52.436;-1.952;2023-08-08T06:38:33;3.20;;;1.10;;
66127;SDS011;52925;52.436;-1.952;2023-08-08T06:39:54;1.83;;;0.83;;
66127;SDS011;52925;52.436;-1.952;2023-08-08T06:41:14;3.27;;;1.10;;
66127;SDS011;52925;52.436;-1.952;2023-08-08T06:42:35;4.13;;;1.10;;
66127;SDS011;52925;52.436;-1.952;2023-08-08T06:43:55;3.60;;;1.10;;
66127;SDS011;52925;52.436;-1.952;2023-08-08T06:45:16;3.90;;;1.10;;
66127;SDS011;52925;52.436;-1.952;2023-08-08T06:46:38;2.20;;;1.00;;
66127;SDS011;52925;52.436;-1.952;2023-08-08T06:47:59;5.17;;;1.17;;
66127;SDS011;52925;52.436;-1.952;2023-08-08T06:49:19;4.13;;;1.20;;
66127;SDS011;52925;52.436;-1.952;2023-08-08T06:50:39;1.47;;;1.00;;
66127;SDS011;52925;52.436;-1.952;2023-08-08T06:51:59;4.30;;;1.00;;
66127;SDS011;52925;52.436;-1.952;2023-08-08T06:53:20;3.13;;;1.00;;
66127;SDS011;52925;52.436;-1.952;2023-08-08T06:54:41;2.73;;;1.07;;
66127;SDS011;52925;52.436;-1.952;2023-08-08T06:56:01;2.70;;;0.90;;
66127;SDS011;52925;52.436;-1.952;2023-08-08T06:57:22;2.63;;;1.07;;
66127;SDS011;52925;52.436;-1.952;2023-08-08T06:58:42;1.97;;;1.00;;
66127;SDS011;52925;52.436;-1.952;2023-08-08T07:00:03;1.30;;;0.90;;
66127;SDS011;52925;52.436;-1.952;2023-08-08T07:01:24;2.30;;;1.03;;
66127;SDS011;52925;52.436;-1.952;2023-08-08T07:02:46;2.97;;;1.33;;
66127;SDS011;52925;52.436;-1.952;2023-08-08T07:04:06;2.63;;;0.77;;
66127;SDS011;52925;52.436;-1.952;2023-08-08T07:05:27;2.60;;;1.17;;
66127;SDS011;52925;52.436;-1.952;2023-08-08T07:06:48;1.33;;;0.87;;
66127;SDS011;52925;52.436;-1.952;2023-08-08T07:08:09;3.53;;;1.03;;
66127;SDS011;52925;52.436;-1.952;2023-08-08T07:09:29;1.67;;;1.10;;
66127;SDS011;52925;52.436;-1.952;2023-08-08T07:10:50;3.67;;;1.20;;
66127;SDS011;52925;52.436;-1.952;2023-08-08T07:12:10;3.33;;;0.93;;
66127;SDS011;52925;52.436;-1.952;2023-08-08T07:13:31;1.87;;;0.90;;
66127;SDS011;52925;52.436;-1.952;2023-08-08T07:14:51;2.40;;;1.20;;
66127;SDS011;52925;52.436;-1.952;2023-08-08T07:16:12;2.10;;;1.10;;
66127;SDS011;52925;52.436;-1.952;2023-08-08T07:17:32;1.73;;;1.00;;
66127;SDS011;52925;52.436;-1.952;2023-08-08T07:18:55;2.73;;;1.20;;
66127;SDS011;52925;52.436;-1.952;2023-08-08T07:20:14;2.47;;;0.80;;
66127;SDS011;52925;52.436;-1.952;2023-08-08T07:21:36;3.03;;;0.90;;
66127;SDS011;52925;52.436;-1.952;2023-08-08T07:22:56;3.03;;;1.30;;
66127;SDS011;52925;52.436;-1.952;2023-08-08T07:24:19;4.03;;;1.50;;
66127;SDS011;52925;52.436;-1.952;2023-08-08T07:25:39;2.90;;;0.87;;
66127;SDS011;52925;52.436;-1.952;2023-08-08T07:27:00;1.50;;;1.20;;
66127;SDS011;52925;52.436;-1.952;2023-08-08T07:28:20;1.50;;;1.10;;
66127;SDS011;52925;52.436;-1.952;2023-08-08T07:29:41;3.23;;;1.17;;
66127;SDS011;52925;52.436;-1.952;2023-08-08T07:31:00;2.40;;;1.00;;
66127;SDS011;52925;52.436;-1.952;2023-08-08T07:32:21;3.17;;;0.90;;
66127;SDS011;52925;52.436;-1.952;2023-08-08T07:33:42;2.37;;;1.10;;
66127;SDS011;52925;52.436;-1.952;2023-08-08T07:35:04;3.50;;;1.20;;
66127;SDS011;52925;52.436;-1.952;2023-08-08T07:36:24;2.80;;;1.10;;
66127;SDS011;52925;52.436;-1.952;2023-08-08T07:37:45;2.17;;;1.00;;
66127;SDS011;52925;52.436;-1.952;2023-08-08T07:39:05;1.80;;;0.90;;
66127;SDS011;52925;52.436;-1.952;2023-08-08T07:40:26;1.63;;;1.00;;
66127;SDS011;52925;52.436;-1.952;2023-08-08T07:41:47;3.13;;;1.10;;
66127;SDS011;52925;52.436;-1.952;2023-08-08T07:43:08;1.20;;;0.80;;
66127;SDS011;52925;52.436;-1.952;2023-08-08T07:44:27;2.37;;;1.10;;
66127;SDS011;52925;52.436;-1.952;2023-08-08T07:45:50;2.27;;;0.83;;
66127;SDS011;52925;52.436;-1.952;2023-08-08T07:47:10;2.03;;;1.00;;
66127;SDS011;52925;52.436;-1.952;2023-08-08T07:48:32;2.40;;;1.20;;
66127;SDS011;52925;52.436;-1.952;2023-08-08T07:49:52;3.57;;;1.40;;
66127;SDS011;52925;52.436;-1.952;2023-08-08T07:51:14;2.73;;;1.10;;
66127;SDS011;52925;52.436;-1.952;2023-08-08T07:52:34;2.77;;;1.10;;
66127;SDS011;52925;52.436;-1.952;2023-08-08T07:53:56;1.93;;;0.90;;
66127;SDS011;52925;52.436;-1.952;2023-08-08T07:55:16;1.30;;;0.90;;
66127;SDS011;52925;52.436;-1.952;2023-08-08T07:56:37;5.00;;;1.03;;
66127;SDS011;52925;52.436;-1.952;2023-08-08T07:57:57;1.60;;;1.13;;
66127;SDS011;52925;52.436;-1.952;2023-08-08T07:59:18;1.50;;;0.90;;
66127;SDS011;52925;52.436;-1.952;2023-08-08T08:00:40;2.30;;;1.13;;